Time;durP1;ratioP1;P1;durP2;ratioP2;P2;SDS_P1;SDS_P2;PMS_P1;PMS_P2;Temp;Humidity;BMP_temperature;BMP_pressure;BME280_temperature;BME280_humidity;BME280_pressure;Samples;Min_cycle;Max_cycle;Signal;HPM_P1;HPM_P2
2022/10/09 00:01:29;;;;;;;29.93;14.00;;;17.90;80.70;;;;;;4968626;28;20257;-78
2022/10/09 00:03:58;;;;;;;22.97;13.00;;;17.80;80.70;;;;;;4972327;28;20298;-77
2022/10/09 00:06:29;;;;;;;22.33;13.10;;;17.80;81.10;;;;;;4966350;28;20668;-77
2022/10/09 00:09:00;;;;;;;22.33;12.97;;;17.80;80.80;;;;;;4967210;28;20237;-78
2022/10/09 00:11:30;;;;;;;23.17;13.73;;;17.70;80.80;;;;;;4971552;28;20193;-78
2022/10/09 00:13:59;;;;;;;26.03;13.70;;;17.70;81.00;;;;;;4970689;28;20256;-77
2022/10/09 00:16:29;;;;;;;28.43;12.47;;;17.60;81.00;;;;;;4968968;28;20211;-78
2022/10/09 00:18:58;;;;;;;26.83;13.60;;;17.60;81.10;;;;;;4971215;28;20289;-78
2022/10/09 00:21:29;;;;;;;23.47;13.27;;;17.50;81.10;;;;;;4966295;28;20285;-77
2022/10/09 00:23:59;;;;;;;23.73;12.83;;;17.50;81.30;;;;;;4962958;28;20614;-77
2022/10/09 00:26:30;;;;;;;26.20;13.27;;;17.40;81.30;;;;;;4963975;28;20198;-78
2022/10/09 00:28:59;;;;;;;24.80;12.70;;;17.40;81.30;;;;;;4967054;28;20221;-78
2022/10/09 00:31:29;;;;;;;20.57;12.43;;;17.30;81.30;;;;;;4967193;28;20210;-77
2022/10/09 00:33:57;;;;;;;21.80;12.53;;;17.30;81.40;;;;;;4933340;28;20261;-78
2022/10/09 00:36:26;;;;;;;26.57;13.30;;;17.30;81.40;;;;;;4965117;28;20226;-78
2022/10/09 00:38:55;;;;;;;25.33;13.13;;;17.20;81.40;;;;;;4968315;28;20198;-78
2022/10/09 00:41:25;;;;;;;22.07;12.87;;;17.20;81.50;;;;;;4968881;28;20300;-77
2022/10/09 00:43:55;;;;;;;22.37;11.50;;;17.20;81.60;;;;;;4965325;28;20202;-78
2022/10/09 00:46:45;;;;;;;24.57;12.17;;;17.10;81.60;;;;;;4969140;28;20198;-78
2022/10/09 00:49:20;;;;;;;21.40;12.13;;;17.10;81.70;;;;;;4970696;28;20225;-77
2022/10/09 00:51:51;;;;;;;25.20;11.73;;;17.10;81.80;;;;;;4967659;28;20198;-78
2022/10/09 00:54:24;;;;;;;21.37;11.53;;;17.10;81.80;;;;;;4963282;28;20193;-78
2022/10/09 00:56:53;;;;;;;21.40;11.47;;;17.00;81.70;;;;;;4972062;28;20264;-78
2022/10/09 00:59:22;;;;;;;21.77;12.00;;;17.00;81.80;;;;;;4966980;28;20332;-78
2022/10/09 01:01:52;;;;;;;20.13;11.67;;;17.00;81.90;;;;;;4969384;28;20221;-78
2022/10/09 01:04:21;;;;;;;25.80;11.60;;;17.00;81.90;;;;;;4969546;28;20624;-78
2022/10/09 01:07:03;;;;;;;21.90;11.80;;;17.00;81.90;;;;;;4965451;28;20343;-78
2022/10/09 01:09:40;;;;;;;17.10;10.63;;;17.00;81.90;;;;;;4959462;28;20217;-78
2022/10/09 01:12:20;;;;;;;22.47;11.83;;;17.00;82.00;;;;;;4963119;28;20201;-77
2022/10/09 01:14:56;;;;;;;20.53;11.90;;;17.00;82.00;;;;;;4964797;28;20260;-78
2022/10/09 01:17:35;;;;;;;22.53;11.67;;;17.00;82.00;;;;;;4967975;28;20193;-77
2022/10/09 01:20:22;;;;;;;21.93;11.93;;;17.00;82.10;;;;;;4968330;28;20620;-77
2022/10/09 01:23:11;;;;;;;23.73;12.00;;;17.00;82.10;;;;;;4967672;28;20479;-78
2022/10/09 01:25:53;;;;;;;19.53;11.90;;;16.90;82.20;;;;;;4962118;28;20202;-78
2022/10/09 01:28:27;;;;;;;20.53;10.50;;;16.90;82.20;;;;;;4968844;28;20625;-78
2022/10/09 01:30:58;;;;;;;21.70;11.13;;;16.90;82.10;;;;;;4964580;28;20260;-78
2022/10/09 01:33:28;;;;;;;19.80;10.50;;;16.90;82.10;;;;;;4970100;28;20205;-78
2022/10/09 01:35:57;;;;;;;18.47;10.63;;;16.90;82.10;;;;;;4969984;28;20198;-79
2022/10/09 01:38:27;;;;;;;20.00;11.47;;;16.90;82.20;;;;;;4965006;28;20206;-78
2022/10/09 01:40:56;;;;;;;19.80;11.17;;;16.80;82.20;;;;;;4964697;28;20286;-78
2022/10/09 01:43:25;;;;;;;21.80;11.30;;;16.80;82.20;;;;;;4969791;28;20210;-78
2022/10/09 01:46:18;;;;;;;18.37;9.87;;;16.80;82.20;;;;;;4967545;28;20234;-78
2022/10/09 01:48:51;;;;;;;20.03;10.67;;;16.70;82.30;;;;;;4962301;28;20558;-78
2022/10/09 01:51:25;;;;;;;18.33;10.50;;;16.70;82.40;;;;;;4962933;28;20323;-78
2022/10/09 01:53:56;;;;;;;22.73;10.20;;;16.60;82.50;;;;;;4970414;28;20232;-78
2022/10/09 01:56:29;;;;;;;21.77;10.73;;;16.60;82.50;;;;;;4969679;28;20228;-78
2022/10/09 01:59:03;;;;;;;18.77;9.90;;;16.60;82.50;;;;;;4962254;28;20202;-78
2022/10/09 02:01:35;;;;;;;17.47;9.90;;;16.50;82.70;;;;;;4966158;28;20189;-78
2022/10/09 02:04:07;;;;;;;17.40;9.87;;;16.50;82.80;;;;;;4964308;28;20730;-78
2022/10/09 02:06:37;;;;;;;20.67;9.73;;;16.50;82.90;;;;;;4968039;28;20225;-77
2022/10/09 02:09:11;;;;;;;17.80;10.77;;;16.40;83.00;;;;;;4963657;28;20651;-78
2022/10/09 02:11:44;;;;;;;21.63;10.00;;;16.40;83.00;;;;;;4968847;28;20303;-77
2022/10/09 02:14:14;;;;;;;17.57;9.83;;;16.40;83.00;;;;;;4965173;28;20725;-77
2022/10/09 02:16:46;;;;;;;19.57;9.87;;;16.40;83.00;;;;;;4969479;28;20209;-77
2022/10/09 02:19:19;;;;;;;17.40;9.53;;;16.30;83.10;;;;;;4970167;28;20221;-77
2022/10/09 02:21:52;;;;;;;20.83;9.93;;;16.40;83.10;;;;;;4967667;28;20253;-78
2022/10/09 02:24:23;;;;;;;18.47;10.50;;;16.30;83.00;;;;;;4963638;28;20272;-78
2022/10/09 02:26:53;;;;;;;20.97;10.00;;;16.40;83.10;;;;;;4969331;28;20194;-78
2022/10/09 02:29:23;;;;;;;26.03;10.43;;;16.30;83.00;;;;;;4968359;28;20238;-78
2022/10/09 02:31:52;;;;;;;21.17;10.67;;;16.30;83.00;;;;;;4967964;28;20272;-77
2022/10/09 02:34:21;;;;;;;18.23;10.40;;;16.30;82.90;;;;;;4967325;28;20233;-78
2022/10/09 02:36:49;;;;;;;22.70;11.20;;;16.30;82.80;;;;;;4966458;28;20244;-77
2022/10/09 02:39:18;;;;;;;17.80;10.33;;;16.30;82.80;;;;;;4973096;28;20206;-78
2022/10/09 02:41:46;;;;;;;19.23;9.87;;;16.30;82.80;;;;;;4972640;28;20357;-77
2022/10/09 02:44:14;;;;;;;22.93;11.23;;;16.30;82.70;;;;;;4971219;28;20313;-77
2022/10/09 02:46:44;;;;;;;18.60;10.53;;;16.30;82.70;;;;;;4972331;28;20234;-78
2022/10/09 02:49:12;;;;;;;23.47;10.60;;;16.30;82.70;;;;;;4972888;28;20239;-78
2022/10/09 02:51:41;;;;;;;23.53;10.30;;;16.20;82.60;;;;;;4965853;28;20214;-78
2022/10/09 02:54:09;;;;;;;23.20;10.00;;;16.20;82.70;;;;;;4972131;28;20222;-78
2022/10/09 02:56:38;;;;;;;23.77;10.30;;;16.20;82.70;;;;;;4974891;28;20264;-77
2022/10/09 02:59:06;;;;;;;18.53;11.43;;;16.10;82.70;;;;;;4968021;28;20218;-78
2022/10/09 03:01:35;;;;;;;24.93;10.60;;;16.10;82.70;;;;;;4967614;28;20288;-79
2022/10/09 03:04:05;;;;;;;21.20;10.63;;;16.10;82.70;;;;;;4968193;28;20206;-78
2022/10/09 03:06:33;;;;;;;20.73;10.63;;;16.10;82.90;;;;;;4964269;28;20315;-78
2022/10/09 03:09:02;;;;;;;19.30;11.30;;;16.00;82.90;;;;;;4970739;28;20232;-78
2022/10/09 03:11:30;;;;;;;24.67;10.60;;;16.00;82.90;;;;;;4967255;28;20785;-78
2022/10/09 03:13:59;;;;;;;18.70;10.07;;;16.00;82.90;;;;;;4968478;28;20209;-78
2022/10/09 03:16:27;;;;;;;20.43;10.87;;;16.00;83.00;;;;;;4969077;28;20201;-78
2022/10/09 03:18:57;;;;;;;18.17;9.40;;;16.00;83.00;;;;;;4970767;28;20213;-78
2022/10/09 03:21:31;;;;;;;18.50;10.30;;;16.00;83.20;;;;;;4968792;28;20238;-79
2022/10/09 03:23:59;;;;;;;15.13;9.30;;;15.90;83.20;;;;;;4967970;28;20198;-78
2022/10/09 03:26:28;;;;;;;19.87;11.13;;;15.90;83.30;;;;;;4969447;28;20240;-77
2022/10/09 03:28:56;;;;;;;17.73;9.97;;;15.90;83.30;;;;;;4965746;28;20231;-78
2022/10/09 03:31:26;;;;;;;18.87;10.83;;;15.80;83.40;;;;;;4969608;28;20353;-78
2022/10/09 03:34:15;;;;;;;18.53;10.10;;;15.80;83.50;;;;;;4965816;28;20256;-77
2022/10/09 03:36:44;;;;;;;18.13;9.67;;;15.80;83.60;;;;;;4968351;28;20224;-77
2022/10/09 03:39:13;;;;;;;15.73;9.37;;;15.70;83.60;;;;;;4966333;28;20237;-78
2022/10/09 03:41:41;;;;;;;17.67;10.70;;;15.70;83.60;;;;;;4969275;28;20228;-78
2022/10/09 03:44:09;;;;;;;20.27;10.20;;;15.70;83.60;;;;;;4970389;28;20636;-79
2022/10/09 03:46:38;;;;;;;17.63;10.77;;;15.70;83.60;;;;;;4965807;28;20253;-78
2022/10/09 03:49:06;;;;;;;18.20;10.90;;;15.70;83.80;;;;;;4962990;28;20249;-78
2022/10/09 03:51:35;;;;;;;19.80;10.70;;;15.70;83.70;;;;;;4969892;28;20679;-78
2022/10/09 03:54:05;;;;;;;19.10;10.77;;;15.60;83.70;;;;;;4973821;28;20202;-78
2022/10/09 03:56:34;;;;;;;19.20;11.27;;;15.60;83.70;;;;;;4970053;28;20213;-78
2022/10/09 03:59:04;;;;;;;20.50;11.85;;;15.60;83.70;;;;;;4968445;28;20444;-79
2022/10/09 04:16:32;;;;;;;17.90;9.50;;;15.50;83.30;;;;;;5092690;27;1361802;-79
2022/10/09 04:19:00;;;;;;;16.57;9.37;;;15.40;86.40;;;;;;5139247;27;20204;-79
2022/10/09 04:21:29;;;;;;;19.33;9.87;;;15.40;86.00;;;;;;5133462;27;20663;-80
2022/10/09 04:23:57;;;;;;;13.80;9.10;;;15.40;85.60;;;;;;5136232;27;20199;-78
2022/10/09 04:26:25;;;;;;;16.57;9.83;;;15.40;85.20;;;;;;5140190;27;20219;-79
2022/10/09 04:28:53;;;;;;;17.23;10.30;;;15.40;85.00;;;;;;5134881;27;20283;-79
2022/10/09 04:31:22;;;;;;;18.27;9.57;;;15.40;84.80;;;;;;5130027;27;20462;-79
2022/10/09 04:33:54;;;;;;;14.63;9.30;;;15.40;84.70;;;;;;5138292;27;20647;-79
2022/10/09 04:36:22;;;;;;;16.93;9.27;;;15.40;84.50;;;;;;5135979;27;20256;-79
2022/10/09 04:38:51;;;;;;;15.37;9.13;;;15.50;84.50;;;;;;5130982;27;20596;-79
2022/10/09 04:41:21;;;;;;;19.73;8.87;;;15.40;84.30;;;;;;5139167;27;20235;-78
2022/10/09 04:43:54;;;;;;;18.70;9.37;;;15.50;84.20;;;;;;5145346;27;20211;-79
2022/10/09 04:46:23;;;;;;;17.63;9.10;;;15.50;84.20;;;;;;5133317;27;20193;-79
2022/10/09 04:48:53;;;;;;;15.90;9.40;;;15.50;84.10;;;;;;5141927;27;20184;-79
2022/10/09 04:51:21;;;;;;;16.63;9.50;;;15.50;84.10;;;;;;5138855;27;20240;-79
2022/10/09 04:53:50;;;;;;;19.03;8.63;;;15.50;84.00;;;;;;5139317;27;20228;-79
2022/10/09 04:56:20;;;;;;;17.57;9.67;;;15.50;83.90;;;;;;5133280;27;20239;-80
2022/10/09 04:58:49;;;;;;;18.13;9.20;;;15.50;83.90;;;;;;5128021;27;20216;-79
2022/10/09 05:01:20;;;;;;;13.20;8.80;;;15.50;83.90;;;;;;5140179;27;20643;-78
2022/10/09 05:03:49;;;;;;;15.60;8.23;;;15.40;83.90;;;;;;5140072;27;20215;-79
2022/10/09 05:06:20;;;;;;;22.33;9.50;;;15.40;84.00;;;;;;5132407;27;20185;-78
2022/10/09 05:08:50;;;;;;;17.97;10.30;;;15.40;84.00;;;;;;5140605;27;20705;-79
2022/10/09 05:11:20;;;;;;;15.40;8.17;;;15.40;84.10;;;;;;5136213;27;20538;-79
2022/10/09 05:13:51;;;;;;;15.50;9.13;;;15.40;84.10;;;;;;5135449;27;20196;-80
2022/10/09 05:16:21;;;;;;;22.07;9.47;;;15.50;84.20;;;;;;5132604;27;20272;-80
2022/10/09 05:18:54;;;;;;;16.17;9.27;;;15.50;84.30;;;;;;5124803;27;20216;-81
2022/10/09 05:21:24;;;;;;;15.13;9.40;;;15.50;84.40;;;;;;5128419;27;20432;-82
2022/10/09 05:23:53;;;;;;;13.60;7.90;;;15.50;85.00;;;;;;5120842;27;20284;-79
2022/10/09 05:26:23;;;;;;;15.33;8.13;;;15.50;84.90;;;;;;5126333;27;20193;-81
2022/10/09 05:28:51;;;;;;;11.93;8.23;;;15.50;84.90;;;;;;5127413;27;20200;-81
2022/10/09 05:31:21;;;;;;;14.80;8.37;;;15.50;84.70;;;;;;5103038;28;20563;-81
2022/10/09 05:33:53;;;;;;;11.33;7.43;;;15.50;84.70;;;;;;5104262;28;20202;-80
2022/10/09 05:36:22;;;;;;;12.50;8.43;;;15.50;84.70;;;;;;5104803;28;20256;-79
2022/10/09 05:38:53;;;;;;;12.57;7.97;;;15.60;84.70;;;;;;5100919;28;20227;-80
2022/10/09 05:41:21;;;;;;;12.80;7.70;;;15.60;84.80;;;;;;5100222;28;20268;-81
2022/10/09 05:43:50;;;;;;;15.27;7.67;;;15.70;84.70;;;;;;5109570;28;20217;-80
2022/10/09 05:46:20;;;;;;;13.30;7.23;;;15.70;84.70;;;;;;5100666;28;20232;-81
2022/10/09 05:48:52;;;;;;;12.17;7.27;;;15.70;84.70;;;;;;5070762;28;20217;-81
2022/10/09 05:51:24;;;;;;;14.53;7.47;;;15.80;84.70;;;;;;5101073;28;20238;-81
2022/10/09 05:53:52;;;;;;;13.00;6.93;;;15.80;84.70;;;;;;5100742;28;20227;-80
2022/10/09 05:56:23;;;;;;;10.60;6.47;;;15.90;84.70;;;;;;5106752;28;20225;-81
2022/10/09 05:58:52;;;;;;;11.47;6.87;;;15.90;84.60;;;;;;5097709;28;20190;-80
2022/10/09 06:01:22;;;;;;;22.10;7.00;;;16.00;84.60;;;;;;5100501;28;20256;-80
2022/10/09 06:03:50;;;;;;;15.60;6.90;;;16.00;84.50;;;;;;5099242;28;20686;-79
2022/10/09 06:06:20;;;;;;;11.73;6.47;;;16.10;84.50;;;;;;5099941;28;20185;-81
2022/10/09 06:08:50;;;;;;;12.30;6.63;;;16.20;84.40;;;;;;5100494;28;20189;-80
2022/10/09 06:11:21;;;;;;;11.83;6.23;;;16.20;84.40;;;;;;5104291;28;20234;-78
2022/10/09 06:13:49;;;;;;;14.27;5.90;;;16.30;84.30;;;;;;5105713;28;20225;-80
2022/10/09 06:16:18;;;;;;;11.17;6.40;;;16.30;84.30;;;;;;5098080;28;20633;-80
2022/10/09 06:18:48;;;;;;;13.57;7.03;;;16.40;84.30;;;;;;5105655;28;20288;-81
2022/10/09 06:21:17;;;;;;;13.47;6.70;;;16.40;84.30;;;;;;5105277;28;20715;-81
2022/10/09 06:23:49;;;;;;;13.60;6.53;;;16.50;84.30;;;;;;5100845;28;20250;-81
2022/10/09 06:26:20;;;;;;;9.53;6.33;;;16.60;84.20;;;;;;5103457;28;20212;-81
2022/10/09 06:28:48;;;;;;;10.33;6.07;;;16.60;84.10;;;;;;5103181;28;20597;-80
2022/10/09 06:31:19;;;;;;;10.40;6.03;;;16.70;84.10;;;;;;5105218;28;20193;-84
2022/10/09 06:33:49;;;;;;;12.30;6.87;;;16.80;84.00;;;;;;5107147;28;20604;-79
2022/10/09 06:36:19;;;;;;;9.00;5.87;;;16.80;83.80;;;;;;5098910;28;20282;-78
2022/10/09 06:38:48;;;;;;;10.47;6.10;;;16.90;83.60;;;;;;5102223;28;20691;-82
2022/10/09 06:41:19;;;;;;;11.00;5.97;;;16.90;83.60;;;;;;5098795;28;20649;-82
2022/10/09 06:43:50;;;;;;;10.57;6.13;;;17.00;83.50;;;;;;5094972;28;20186;-81
2022/10/09 06:46:20;;;;;;;10.63;6.80;;;17.00;83.40;;;;;;5099586;28;20227;-82
2022/10/09 06:48:48;;;;;;;14.43;7.10;;;17.10;83.30;;;;;;5100284;28;20439;-81
2022/10/09 06:51:18;;;;;;;12.63;7.17;;;17.20;83.30;;;;;;5103747;28;20193;-82
2022/10/09 06:53:49;;;;;;;9.10;5.93;;;17.30;83.40;;;;;;5098384;28;20197;-80
2022/10/09 06:56:20;;;;;;;9.03;5.80;;;17.40;83.20;;;;;;5107840;28;20265;-81
2022/10/09 06:58:48;;;;;;;8.67;5.47;;;17.40;82.80;;;;;;5100762;28;20602;-82
2022/10/09 07:01:18;;;;;;;17.33;6.00;;;17.50;82.80;;;;;;5103667;28;20200;-83
2022/10/09 07:03:52;;;;;;;12.00;6.30;;;17.50;82.70;;;;;;5107913;28;20189;-81
2022/10/09 07:06:25;;;;;;;13.10;6.90;;;17.60;82.60;;;;;;5104194;28;20194;-81
2022/10/09 07:08:56;;;;;;;13.70;7.30;;;17.60;82.30;;;;;;5100895;28;20654;-79
2022/10/09 07:11:28;;;;;;;12.73;6.20;;;17.70;82.00;;;;;;5103537;28;20189;-82
2022/10/09 07:13:58;;;;;;;10.17;6.43;;;17.80;82.00;;;;;;5101407;28;20787;-81
2022/10/09 07:16:29;;;;;;;11.17;6.03;;;17.80;82.00;;;;;;5103945;28;20278;-79
2022/10/09 07:18:59;;;;;;;12.23;6.00;;;17.90;81.70;;;;;;5100364;28;20653;-80
2022/10/09 07:21:31;;;;;;;12.23;6.80;;;18.00;81.40;;;;;;5055255;28;20197;-80
2022/10/09 07:24:00;;;;;;;11.27;6.50;;;18.10;81.50;;;;;;5107499;28;20197;-80
2022/10/09 07:26:32;;;;;;;8.63;5.27;;;18.20;81.40;;;;;;5096951;28;20436;-81
2022/10/09 07:29:00;;;;;;;12.40;6.17;;;18.30;81.30;;;;;;5101862;28;20288;-81
2022/10/09 07:31:29;;;;;;;10.27;5.43;;;18.40;81.20;;;;;;5102909;28;20198;-80
2022/10/09 07:33:57;;;;;;;11.17;5.37;;;18.40;80.90;;;;;;5098058;28;20197;-78
2022/10/09 07:36:26;;;;;;;8.30;4.67;;;18.50;80.60;;;;;;5096910;28;20278;-79
2022/10/09 07:38:57;;;;;;;11.93;5.23;;;18.60;80.00;;;;;;5102728;28;20649;-79
2022/10/09 07:41:27;;;;;;;9.83;4.90;;;18.70;79.80;;;;;;5094857;28;20193;-79
2022/10/09 07:43:58;;;;;;;8.20;4.70;;;18.70;79.60;;;;;;5104432;28;20218;-80
2022/10/09 07:46:27;;;;;;;10.83;5.40;;;18.80;79.40;;;;;;5098579;28;20190;-78
2022/10/09 07:49:00;;;;;;;11.20;4.73;;;18.90;79.10;;;;;;5097036;28;20279;-79
2022/10/09 07:51:29;;;;;;;10.90;4.60;;;19.00;78.30;;;;;;5102631;28;20649;-81
2022/10/09 07:54:00;;;;;;;11.33;4.70;;;19.10;78.20;;;;;;5100757;28;20779;-78
2022/10/09 07:56:31;;;;;;;8.73;5.10;;;19.10;78.30;;;;;;5097170;28;20249;-78
2022/10/09 07:59:02;;;;;;;9.17;4.77;;;19.20;78.20;;;;;;5105249;28;20285;-79
2022/10/09 08:01:34;;;;;;;7.10;5.13;;;19.30;78.00;;;;;;5100374;28;20213;-79
2022/10/09 08:04:04;;;;;;;10.20;4.57;;;19.40;78.00;;;;;;5108314;28;20208;-79
2022/10/09 08:06:33;;;;;;;8.73;4.40;;;19.50;77.90;;;;;;5100676;28;20221;-80
2022/10/09 08:09:02;;;;;;;9.00;4.33;;;19.60;77.60;;;;;;5104889;28;20280;-79
2022/10/09 08:11:31;;;;;;;10.30;4.43;;;19.70;77.40;;;;;;5096452;28;20190;-79
2022/10/09 08:14:01;;;;;;;8.40;4.23;;;19.80;77.20;;;;;;5108376;28;20270;-81
2022/10/09 08:16:31;;;;;;;6.90;4.80;;;19.90;77.00;;;;;;5100517;28;20274;-80
2022/10/09 08:19:01;;;;;;;9.63;4.57;;;20.00;76.80;;;;;;5105289;28;20232;-79
2022/10/09 08:21:31;;;;;;;5.97;4.10;;;20.00;76.60;;;;;;5105579;28;20185;-79
2022/10/09 08:24:00;;;;;;;7.30;4.10;;;20.10;76.50;;;;;;5098620;28;20645;-80
2022/10/09 08:26:30;;;;;;;8.63;4.17;;;20.20;76.50;;;;;;5101287;28;20593;-80
2022/10/09 08:29:01;;;;;;;9.70;4.83;;;20.40;77.10;;;;;;5102695;28;20217;-81
2022/10/09 08:31:31;;;;;;;8.87;4.47;;;20.40;75.90;;;;;;5105307;28;20217;-77
2022/10/09 08:34:02;;;;;;;8.83;4.43;;;20.50;75.40;;;;;;5100366;28;20185;-79
2022/10/09 08:36:31;;;;;;;6.47;4.82;;;20.60;74.60;;;;;;5094082;28;20248;-79
2022/10/09 08:38:59;;;;;;;7.18;4.72;;;20.70;74.40;;;;;;5104138;28;20617;-80
2022/10/09 08:41:40;;;;;;;8.57;4.47;;;20.80;74.50;;;;;;5096170;28;20189;-78
2022/10/09 08:44:17;;;;;;;8.07;4.53;;;20.90;74.50;;;;;;5062134;28;20208;-80
2022/10/09 08:46:55;;;;;;;9.23;4.15;;;21.00;74.40;;;;;;5101110;28;20188;-79
2022/10/09 08:49:29;;;;;;;8.98;4.47;;;21.10;73.90;;;;;;5100847;28;20217;-80
2022/10/09 08:52:15;;;;;;;8.95;4.60;;;21.10;73.90;;;;;;5094269;28;20193;-79
2022/10/09 08:54:43;;;;;;;8.52;4.90;;;21.20;73.60;;;;;;5097968;28;20600;-79
2022/10/09 08:57:14;;;;;;;7.20;4.50;;;21.30;73.40;;;;;;5110135;28;20221;-78
2022/10/09 08:59:44;;;;;;;7.18;4.63;;;21.40;73.00;;;;;;5109581;28;20189;-79
2022/10/09 09:02:31;;;;;;;14.50;5.25;;;21.40;71.90;;;;;;5100505;28;20224;-79
2022/10/09 09:05:10;;;;;;;9.02;4.97;;;21.50;72.00;;;;;;5098915;28;20189;-80
2022/10/09 09:07:46;;;;;;;12.50;5.13;;;21.60;71.80;;;;;;5103600;28;20193;-77
2022/10/09 09:10:20;;;;;;;6.85;4.38;;;21.70;71.20;;;;;;5104792;28;20190;-79
2022/10/09 09:12:55;;;;;;;8.05;4.63;;;21.70;71.40;;;;;;5101140;28;20242;-80
2022/10/09 09:15:43;;;;;;;9.73;4.93;;;21.80;71.30;;;;;;5102674;28;20228;-79
2022/10/09 09:18:34;;;;;;;10.77;5.32;;;21.90;71.20;;;;;;5104529;28;20205;-82
2022/10/09 09:21:24;;;;;;;8.65;4.68;;;21.90;70.60;;;;;;5101091;28;20664;-82
2022/10/09 09:23:52;;;;;;;8.88;4.82;;;22.00;70.70;;;;;;5103337;28;20613;-81
2022/10/09 09:26:21;;;;;;;13.93;5.43;;;22.10;70.80;;;;;;5098171;28;20609;-80
2022/10/09 09:29:01;;;;;;;7.97;5.43;;;22.20;70.60;;;;;;5098023;28;20197;-81
2022/10/09 09:31:36;;;;;;;8.23;5.18;;;22.20;70.40;;;;;;5102690;28;20272;-78
2022/10/09 09:34:11;;;;;;;7.65;4.47;;;22.20;69.90;;;;;;5098269;28;20272;-79
2022/10/09 09:36:44;;;;;;;10.63;4.50;;;22.30;69.80;;;;;;5097077;28;20189;-76
2022/10/09 09:39:13;;;;;;;6.57;4.57;;;22.40;69.80;;;;;;5099845;28;20213;-78
2022/10/09 09:42:10;;;;;;;9.57;4.82;;;22.40;69.50;;;;;;5105324;28;20196;-85
2022/10/09 09:44:45;;;;;;;7.75;4.78;;;22.50;69.20;;;;;;5107094;28;20185;-80
2022/10/09 09:47:18;;;;;;;14.13;5.10;;;22.50;69.10;;;;;;5102131;28;20193;-82
2022/10/09 09:49:59;;;;;;;7.85;4.30;;;22.60;68.70;;;;;;5101893;28;20185;-80
2022/10/09 09:52:31;;;;;;;5.78;3.83;;;22.60;67.90;;;;;;5102174;28;20193;-80
2022/10/09 09:55:00;;;;;;;16.58;4.50;;;22.70;68.20;;;;;;5100445;28;20185;-79
2022/10/09 09:57:34;;;;;;;7.00;4.55;;;22.70;68.30;;;;;;5102090;28;20209;-80
2022/10/09 10:00:18;;;;;;;8.10;4.03;;;22.70;67.00;;;;;;5101856;28;20190;-80
2022/10/09 10:02:46;;;;;;;10.63;5.28;;;22.80;67.50;;;;;;5099700;28;20197;-80
2022/10/09 10:05:21;;;;;;;9.70;5.68;;;22.90;67.60;;;;;;5099379;28;20190;-86
2022/10/09 10:07:50;;;;;;;10.57;5.40;;;22.90;67.50;;;;;;5095124;28;20483;-80
2022/10/09 10:10:21;;;;;;;6.88;4.32;;;23.00;66.50;;;;;;5091711;28;20185;-80
2022/10/09 10:12:57;;;;;;;6.38;4.13;;;23.00;66.90;;;;;;5102960;28;20548;-80
2022/10/09 10:15:28;;;;;;;7.53;4.38;;;23.10;66.80;;;;;;5099403;28;20213;-81
2022/10/09 10:18:06;;;;;;;5.88;4.00;;;23.10;66.90;;;;;;5106698;28;20212;-81
2022/10/09 10:20:44;;;;;;;9.43;5.05;;;23.20;66.50;;;;;;5110247;28;20258;-80
2022/10/09 10:23:24;;;;;;;9.60;4.80;;;23.20;66.20;;;;;;5101693;28;20213;-81
2022/10/09 10:25:55;;;;;;;8.88;3.60;;;23.20;65.40;;;;;;5109384;28;20262;-82
2022/10/09 10:28:29;;;;;;;7.95;4.15;;;23.20;65.20;;;;;;5097005;28;20288;-80
2022/10/09 10:31:00;;;;;;;8.10;3.92;;;23.30;65.40;;;;;;5096922;28;20203;-81
2022/10/09 10:33:31;;;;;;;7.28;3.95;;;23.40;65.30;;;;;;5097118;28;20192;-81
2022/10/09 10:36:01;;;;;;;8.32;3.42;;;23.40;65.50;;;;;;5103940;28;20258;-80
2022/10/09 10:38:33;;;;;;;4.72;3.30;;;23.40;65.40;;;;;;5101027;28;20693;-79
2022/10/09 10:41:11;;;;;;;6.78;3.20;;;23.40;63.30;;;;;;5094448;28;20190;-79
2022/10/09 10:43:44;;;;;;;9.18;2.85;;;23.50;62.40;;;;;;5098814;28;20210;-80
2022/10/09 10:46:19;;;;;;;4.97;2.97;;;23.50;62.20;;;;;;5092396;28;20258;-80
2022/10/09 10:48:48;;;;;;;8.75;3.10;;;23.60;62.70;;;;;;5096326;28;20322;-79
2022/10/09 10:51:31;;;;;;;6.35;2.90;;;23.60;63.80;;;;;;5093253;28;20205;-81
2022/10/09 10:54:20;;;;;;;6.10;3.30;;;23.70;63.40;;;;;;5101647;28;20727;-79
2022/10/09 10:56:53;;;;;;;5.10;2.92;;;23.70;63.50;;;;;;5093077;28;20272;-80
2022/10/09 10:59:35;;;;;;;6.03;2.97;;;23.80;62.80;;;;;;5096640;28;20742;-78
2022/10/09 11:02:48;;;;;;;8.70;4.03;;;23.80;62.40;;;;;;5100889;28;20246;-79
2022/10/09 11:05:26;;;;;;;8.82;3.72;;;23.90;62.50;;;;;;5049320;28;20312;-80
2022/10/09 11:08:31;;;;;;;7.85;3.63;;;23.90;61.80;;;;;;5098744;28;20236;-80
2022/10/09 11:11:06;;;;;;;6.72;4.05;;;23.90;62.00;;;;;;5092491;28;20246;-78
2022/10/09 11:13:41;;;;;;;10.25;3.70;;;24.00;61.50;;;;;;5093461;28;20213;-81
2022/10/09 11:16:25;;;;;;;5.75;3.45;;;24.00;60.90;;;;;;5097792;28;20248;-79
2022/10/09 11:19:12;;;;;;;5.20;3.33;;;24.10;61.30;;;;;;5092563;28;20210;-81
2022/10/09 11:21:51;;;;;;;6.15;3.17;;;24.10;60.80;;;;;;5100975;28;20213;-79
2022/10/09 11:24:44;;;;;;;7.10;3.17;;;24.10;60.20;;;;;;5100369;28;20539;-79
2022/10/09 11:27:18;;;;;;;6.55;3.47;;;24.10;60.40;;;;;;5084166;28;20209;-81
2022/10/09 11:29:52;;;;;;;6.10;3.70;;;24.20;60.10;;;;;;5099459;28;20232;-80
2022/10/09 11:32:26;;;;;;;11.05;3.42;;;24.20;60.00;;;;;;5102227;28;20612;-79
2022/10/09 11:35:01;;;;;;;5.32;3.60;;;24.20;59.90;;;;;;5101744;28;20608;-79
2022/10/09 11:37:34;;;;;;;11.68;6.30;;;24.30;60.00;;;;;;5104326;28;20200;-80
2022/10/09 11:40:07;;;;;;;5.45;3.72;;;24.30;59.50;;;;;;5098645;28;20367;-81
2022/10/09 11:42:37;;;;;;;8.57;4.38;;;24.40;59.50;;;;;;5104902;28;20662;-80
2022/10/09 11:45:22;;;;;;;6.80;3.90;;;24.40;59.40;;;;;;5099660;28;20196;-82
2022/10/09 11:48:01;;;;;;;7.28;3.22;;;24.40;58.40;;;;;;5100192;28;20186;-80
2022/10/09 11:50:39;;;;;;;5.25;3.25;;;24.50;58.90;;;;;;5100539;28;20209;-79
2022/10/09 11:53:11;;;;;;;6.10;3.72;;;24.60;59.10;;;;;;5095669;28;20185;-79
2022/10/09 11:55:39;;;;;;;6.50;3.80;;;24.60;60.00;;;;;;5099560;28;20809;-81
2022/10/09 11:58:20;;;;;;;6.85;4.25;;;24.60;59.20;;;;;;5094869;28;20218;-82
2022/10/09 12:00:50;;;;;;;6.10;3.25;;;24.60;58.20;;;;;;5097787;28;20197;-79
2022/10/09 12:03:32;;;;;;;7.57;3.45;;;24.60;58.70;;;;;;5097269;28;20193;-80
2022/10/09 12:06:07;;;;;;;5.90;2.85;;;24.70;58.90;;;;;;5097138;28;20263;-79
2022/10/09 12:08:36;;;;;;;4.32;2.92;;;24.70;59.00;;;;;;5098111;28;20252;-80
2022/10/09 12:11:16;;;;;;;9.43;3.40;;;24.80;58.90;;;;;;5099973;28;20763;-79
2022/10/09 12:13:50;;;;;;;4.80;3.40;;;24.80;58.30;;;;;;5106122;28;20625;-79
2022/10/09 12:16:40;;;;;;;4.57;3.13;;;24.80;58.10;;;;;;5097044;28;20243;-80
2022/10/09 12:19:18;;;;;;;11.80;4.25;;;24.80;58.40;;;;;;5097392;28;20208;-79
2022/10/09 12:21:59;;;;;;;5.55;3.50;;;24.90;58.30;;;;;;5093354;28;20191;-78
2022/10/09 12:24:31;;;;;;;5.65;3.42;;;24.90;58.20;;;;;;5088704;28;20667;-80
2022/10/09 12:27:03;;;;;;;9.20;3.70;;;24.90;57.80;;;;;;5099655;28;20639;-77
2022/10/09 12:29:40;;;;;;;10.55;4.03;;;25.00;57.70;;;;;;5102495;28;20216;-79
2022/10/09 12:32:14;;;;;;;6.05;3.45;;;25.00;57.90;;;;;;5100047;28;20534;-79
2022/10/09 12:34:46;;;;;;;6.65;3.60;;;25.00;57.50;;;;;;5099093;28;20219;-79
2022/10/09 12:37:16;;;;;;;5.53;3.53;;;25.00;57.70;;;;;;5094416;28;20193;-79
2022/10/09 12:39:45;;;;;;;5.88;3.70;;;25.10;57.90;;;;;;5096013;28;20205;-80
2022/10/09 12:42:19;;;;;;;7.85;3.33;;;25.10;58.00;;;;;;5107219;28;20201;-79
2022/10/09 12:44:50;;;;;;;9.32;3.30;;;25.20;57.60;;;;;;5096837;28;20219;-80
2022/10/09 12:47:25;;;;;;;9.07;3.35;;;25.20;57.90;;;;;;5099526;28;20188;-80
2022/10/09 12:50:05;;;;;;;7.13;3.80;;;25.20;58.00;;;;;;5095875;28;20193;-80
2022/10/09 12:52:34;;;;;;;7.72;3.50;;;25.20;57.90;;;;;;5100057;28;20193;-81
2022/10/09 12:55:02;;;;;;;5.78;3.30;;;25.20;57.30;;;;;;5097853;28;20603;-80
2022/10/09 12:57:31;;;;;;;6.00;3.65;;;25.30;57.30;;;;;;5098514;28;20637;-82
2022/10/09 13:00:01;;;;;;;6.25;3.03;;;25.30;57.70;;;;;;5098336;28;20240;-78
2022/10/09 13:02:30;;;;;;;5.10;3.60;;;25.40;57.40;;;;;;5096179;28;20190;-80
2022/10/09 13:05:01;;;;;;;6.50;3.20;;;25.50;57.30;;;;;;5099080;28;20706;-79
2022/10/09 13:07:31;;;;;;;8.35;3.85;;;25.50;57.40;;;;;;5101021;28;20557;-80
2022/10/09 13:10:06;;;;;;;7.47;4.18;;;25.50;56.50;;;;;;5103517;28;20212;-80
2022/10/09 13:12:35;;;;;;;5.63;3.40;;;25.50;55.60;;;;;;5106013;28;20241;-82
2022/10/09 13:15:07;;;;;;;4.32;3.53;;;25.60;56.60;;;;;;5098906;28;20908;-82
2022/10/09 13:17:38;;;;;;;8.55;3.63;;;25.60;56.70;;;;;;5101582;28;20247;-81
2022/10/09 13:20:25;;;;;;;5.80;3.20;;;25.70;56.90;;;;;;5102357;28;20197;-81